createdAt,value
2019-02-10T00:00:45.232Z,45.14
2019-02-10T00:01:45.247Z,44.74
2019-02-10T00:02:45.211Z,45.14
2019-02-10T00:03:45.200Z,44.67
2019-02-10T00:04:45.188Z,45.14
2019-02-10T00:05:45.178Z,45.04
2019-02-10T00:06:45.169Z,44.96
2019-02-10T00:07:45.161Z,45.17
2019-02-10T00:08:45.145Z,44.95
2019-02-10T00:09:45.132Z,44.95
2019-02-10T00:10:45.150Z,45.06
2019-02-10T00:11:45.110Z,44.87
2019-02-10T00:12:45.110Z,44.95
2019-02-10T00:13:45.087Z,45.04
2019-02-10T00:14:45.077Z,45.06
2019-02-10T00:15:45.065Z,44.96
2019-02-10T00:16:45.061Z,44.96
2019-02-10T00:17:45.053Z,44.95
2019-02-10T00:18:45.032Z,44.96
2019-02-10T00:19:45.022Z,44.96
2019-02-10T00:20:45.024Z,44.76
2019-02-10T00:21:44.998Z,44.87
2019-02-10T00:22:45.002Z,44.56
2019-02-10T00:23:44.977Z,44.96
2019-02-10T00:24:44.965Z,44.67
2019-02-10T00:25:44.953Z,44.84
2019-02-10T00:26:44.951Z,44.87
2019-02-10T00:27:44.940Z,45.06
2019-02-10T00:28:44.919Z,45.04
2019-02-10T00:29:44.907Z,45.17
2019-02-10T00:30:44.898Z,45.06
2019-02-10T00:31:44.888Z,45.06
2019-02-10T00:32:44.890Z,44.46
2019-02-10T00:33:44.866Z,44.76
2019-02-10T00:34:44.854Z,44.96
2019-02-10T00:35:44.842Z,44.96
2019-02-10T00:36:44.834Z,44.56
2019-02-10T00:37:44.828Z,44.56
2019-02-10T00:38:44.808Z,44.56
2019-02-10T00:39:44.799Z,44.46
2019-02-10T00:40:44.786Z,44.56
2019-02-10T00:41:44.775Z,45.37
2019-02-10T00:42:44.764Z,44.46
2019-02-10T00:43:44.759Z,44.46
2019-02-10T00:44:44.740Z,44.54
2019-02-10T00:45:44.733Z,44.44
2019-02-10T00:46:44.745Z,44.46
2019-02-10T00:47:44.707Z,44.56
2019-02-10T00:48:44.699Z,44.16
2019-02-10T00:49:44.685Z,44.56
2019-02-10T00:50:44.680Z,44.67
2019-02-10T00:51:44.664Z,44.56
2019-02-10T00:52:44.658Z,43.96
2019-02-10T00:53:44.647Z,44.46
2019-02-10T00:54:44.655Z,43.96
2019-02-10T00:55:44.621Z,44.56
2019-02-10T00:56:44.608Z,44.56
2019-02-10T00:57:44.597Z,44.16
2019-02-10T00:58:44.597Z,44.36
2019-02-10T00:59:44.577Z,44.96
2019-02-10T01:00:44.566Z,45.06
2019-02-10T01:01:44.565Z,44.56
2019-02-10T01:02:44.544Z,44.87
2019-02-10T01:03:44.545Z,45.06
2019-02-10T01:04:44.520Z,45.06
2019-02-10T01:05:44.511Z,44.56
2019-02-10T01:06:44.498Z,44.87
2019-02-10T01:07:44.488Z,44.76
2019-02-10T01:08:44.487Z,44.36
2019-02-10T01:09:44.466Z,44.76
2019-02-10T01:10:44.454Z,44.36
2019-02-10T01:11:44.443Z,44.26
2019-02-10T01:12:44.432Z,44.76
2019-02-10T01:13:44.430Z,44.76
2019-02-10T01:14:44.408Z,44.96
2019-02-10T01:15:44.399Z,44.46
2019-02-10T01:16:44.397Z,44.67
2019-02-10T01:17:44.380Z,44.67
2019-02-10T01:18:44.387Z,44.67
2019-02-10T01:19:44.361Z,44.26
2019-02-10T01:20:44.343Z,44.96
2019-02-10T01:21:44.336Z,45.06
2019-02-10T01:22:44.321Z,44.67
2019-02-10T01:23:44.329Z,44.46
2019-02-10T01:24:44.299Z,44.67
2019-02-10T01:25:44.291Z,44.46
2019-02-10T01:26:44.278Z,44.46
2019-02-10T01:27:44.267Z,44.26
2019-02-10T01:28:44.266Z,44.36
2019-02-10T01:29:44.246Z,44.26
2019-02-10T01:30:44.234Z,44.28
2019-02-10T01:31:44.225Z,44.28
2019-02-10T01:32:44.219Z,44.38
2019-02-10T01:33:44.211Z,44.28
2019-02-10T01:34:44.188Z,44.79
2019-02-10T01:35:44.177Z,44.38
2019-02-10T01:36:49.357Z,44.06
2019-02-10T01:37:45.153Z,44.28
2019-02-10T01:38:44.155Z,44.48
2019-02-10T01:39:44.133Z,44.67
2019-02-10T01:40:44.126Z,44.38
2019-02-10T01:41:44.114Z,44.68
2019-02-10T01:42:44.104Z,44.28
2019-02-10T01:43:44.112Z,43.88
2019-02-10T01:44:44.078Z,44.46
2019-02-10T01:45:44.068Z,44.46
2019-02-10T01:46:44.057Z,44.68
2019-02-10T01:47:44.048Z,44.48
2019-02-10T01:48:44.056Z,44.59
2019-02-10T01:49:44.025Z,44.48
2019-02-10T01:50:44.016Z,44.48
2019-02-10T01:51:44.002Z,44.46
2019-02-10T01:52:43.991Z,44.48
2019-02-10T01:53:43.982Z,44.26
2019-02-10T01:54:43.970Z,44.79
2019-02-10T01:55:43.959Z,44.48
2019-02-10T01:56:43.997Z,44.68
2019-02-10T01:57:43.935Z,44.68
2019-02-10T01:58:43.924Z,44.26
2019-02-10T01:59:43.922Z,44.79
2019-02-10T02:00:43.907Z,44.99
2019-02-10T02:01:43.890Z,44.68
2019-02-10T02:02:43.879Z,44.76
2019-02-10T02:03:43.868Z,44.89
2019-02-10T02:04:43.867Z,44.89
2019-02-10T02:05:43.846Z,44.68
2019-02-10T02:06:43.836Z,44.89
2019-02-10T02:07:43.836Z,44.68
2019-02-10T02:08:43.813Z,44.89
2019-02-10T02:09:43.809Z,44.68
2019-02-10T02:10:43.790Z,44.68
2019-02-10T02:11:43.780Z,44.59
2019-02-10T02:12:43.769Z,44.59
2019-02-10T02:13:43.758Z,44.08
2019-02-10T02:14:43.751Z,44.48
2019-02-10T02:15:43.735Z,44.79
2019-02-10T02:16:43.730Z,44.67
2019-02-10T02:17:43.713Z,44.59
2019-02-10T02:18:43.701Z,44.79
2019-02-10T02:19:43.692Z,44.68
2019-02-10T02:20:43.685Z,44.68
2019-02-10T02:21:43.668Z,44.68
2019-02-10T02:22:43.656Z,43.98
2019-02-10T02:23:43.646Z,44.48
2019-02-10T02:24:43.646Z,44.68
2019-02-10T02:25:43.624Z,44.48
2019-02-10T02:26:43.614Z,44.48
2019-02-10T02:27:43.600Z,44.38
2019-02-10T02:28:43.597Z,44.59
2019-02-10T02:29:43.605Z,44.48
2019-02-10T02:30:43.569Z,44.38
2019-02-10T02:31:43.558Z,44.18
2019-02-10T02:32:43.545Z,44.18
2019-02-10T02:33:43.535Z,44.38
2019-02-10T02:34:43.555Z,44.38
2019-02-10T02:35:43.514Z,44.28
2019-02-10T02:36:43.543Z,44.18
2019-02-10T02:37:43.490Z,44.68
2019-02-10T02:38:43.480Z,44.38
2019-02-10T02:39:43.467Z,44.08
2019-02-10T02:40:43.468Z,44.38
2019-02-10T02:41:43.447Z,44.18
2019-02-10T02:42:43.440Z,44.38
2019-02-10T02:43:43.426Z,44.38
2019-02-10T02:44:43.419Z,44.38
2019-02-10T02:45:43.414Z,44.28
2019-02-10T02:46:43.392Z,44.38
2019-02-10T02:47:43.382Z,44.38
2019-02-10T02:48:43.372Z,44.38
2019-02-10T02:49:43.360Z,44.18
2019-02-10T02:50:43.504Z,44.28
2019-02-10T02:51:43.354Z,44.38
2019-02-10T02:52:43.346Z,44.38
2019-02-10T02:53:43.323Z,44.28
2019-02-10T02:54:43.313Z,44.28
2019-02-10T02:55:43.309Z,44.18
2019-02-10T02:56:43.283Z,44.28
2019-02-10T02:57:43.273Z,44.18
2019-02-10T02:58:43.268Z,44.28
2019-02-10T02:59:43.287Z,44.28
2019-02-10T03:00:43.257Z,44.08
2019-02-10T03:01:43.231Z,43.98
2019-02-10T03:02:43.219Z,44.10
2019-02-10T03:03:43.211Z,43.98
2019-02-10T03:04:43.255Z,44.10
2019-02-10T03:05:43.198Z,44.00
2019-02-10T03:06:43.173Z,44.28
2019-02-10T03:07:43.163Z,44.20
2019-02-10T03:08:43.161Z,44.31
2019-02-10T03:09:43.144Z,44.28
2019-02-10T03:10:43.143Z,44.18
2019-02-10T03:11:43.126Z,44.08
2019-02-10T03:12:43.108Z,44.20
2019-02-10T03:13:43.105Z,44.18
2019-02-10T03:14:43.086Z,44.20
2019-02-10T03:15:43.088Z,44.28
2019-02-10T03:16:43.065Z,44.08
2019-02-10T03:17:43.075Z,44.18
2019-02-10T03:18:43.044Z,44.08
2019-02-10T03:19:43.056Z,44.20
2019-02-10T03:20:43.039Z,43.88
2019-02-10T03:21:43.013Z,44.28
2019-02-10T03:22:43.009Z,44.20
2019-02-10T03:23:42.988Z,44.20
2019-02-10T03:24:42.983Z,43.80
2019-02-10T03:25:43.063Z,44.10
2019-02-10T03:26:42.957Z,44.20
2019-02-10T03:27:42.945Z,44.10
2019-02-10T03:28:42.943Z,43.88
2019-02-10T03:29:42.931Z,43.80
2019-02-10T03:30:42.928Z,43.80
2019-02-10T03:31:42.954Z,43.80
2019-02-10T03:32:42.898Z,43.80
2019-02-10T03:33:42.945Z,43.70
2019-02-10T03:34:42.878Z,43.80
2019-02-10T03:35:42.866Z,43.70
2019-02-10T03:36:42.847Z,44.31
2019-02-10T03:37:42.837Z,43.68
2019-02-10T03:38:42.822Z,43.70
2019-02-10T03:39:42.812Z,44.31
2019-02-10T03:40:42.805Z,43.88
2019-02-10T03:41:42.798Z,43.80
2019-02-10T03:42:42.779Z,43.70
2019-02-10T03:43:42.768Z,43.80
2019-02-10T03:44:42.765Z,43.40
2019-02-10T03:45:42.767Z,44.00
2019-02-10T03:46:42.739Z,43.88
2019-02-10T03:47:42.722Z,43.30
2019-02-10T03:48:42.717Z,43.90
2019-02-10T03:49:42.701Z,43.40
2019-02-10T03:50:42.690Z,43.80
2019-02-10T03:51:42.697Z,43.80
2019-02-10T03:52:42.673Z,43.20
2019-02-10T03:53:42.662Z,43.30
2019-02-10T03:54:42.652Z,43.70
2019-02-10T03:55:42.645Z,43.38
2019-02-10T03:56:42.643Z,43.90
2019-02-10T03:57:42.619Z,43.40
2019-02-10T03:58:42.601Z,43.40
2019-02-10T03:59:42.590Z,43.50
2019-02-10T04:00:42.584Z,43.40
2019-02-10T04:01:42.576Z,43.40
2019-02-10T04:02:42.562Z,43.20
2019-02-10T04:03:42.543Z,43.40
2019-02-10T04:04:42.537Z,43.40
2019-02-10T04:05:42.556Z,43.38
2019-02-10T04:06:42.521Z,43.40
2019-02-10T04:07:42.505Z,43.30
2019-02-10T04:08:42.499Z,43.20
2019-02-10T04:09:42.479Z,43.40
2019-02-10T04:10:42.469Z,43.70
2019-02-10T04:11:42.466Z,44.10
2019-02-10T04:12:42.450Z,43.20
2019-02-10T04:13:42.444Z,43.40
2019-02-10T04:14:42.422Z,43.40
2019-02-10T04:15:42.413Z,43.40
2019-02-10T04:16:42.410Z,43.20
2019-02-10T04:17:42.388Z,43.10
2019-02-10T04:18:42.377Z,43.20
2019-02-10T04:19:42.367Z,43.70
2019-02-10T04:20:42.355Z,43.50
2019-02-10T04:21:42.356Z,43.20
2019-02-10T04:22:42.344Z,44.00
2019-02-10T04:23:42.324Z,43.20
2019-02-10T04:24:42.321Z,44.00
2019-02-10T04:25:42.306Z,43.20
2019-02-10T04:26:42.300Z,43.20
2019-02-10T04:27:42.284Z,43.70
2019-02-10T04:28:42.273Z,43.80
2019-02-10T04:29:42.264Z,43.90
2019-02-10T04:30:42.250Z,43.70
2019-02-10T04:31:42.264Z,44.10
2019-02-10T04:32:42.222Z,43.90
2019-02-10T04:33:42.210Z,43.90
2019-02-10T04:34:42.202Z,43.80
2019-02-10T04:35:42.189Z,43.90
2019-02-10T04:36:42.192Z,44.00
2019-02-10T04:37:46.005Z,43.20
2019-02-10T04:38:42.163Z,43.90
2019-02-10T04:39:42.149Z,43.70
2019-02-10T04:40:42.138Z,44.10
2019-02-10T04:41:42.131Z,43.60
2019-02-10T04:42:42.119Z,43.80
2019-02-10T04:43:42.099Z,43.80
2019-02-10T04:44:42.087Z,43.80
2019-02-10T04:45:42.079Z,44.00
2019-02-10T04:46:42.074Z,44.00
2019-02-10T04:47:42.060Z,44.00
2019-02-10T04:48:42.049Z,44.10
2019-02-10T04:49:42.032Z,43.80
2019-02-10T04:50:42.037Z,43.80
2019-02-10T04:51:42.019Z,44.20
2019-02-10T04:52:42.001Z,44.31
2019-02-10T04:53:41.987Z,43.70
2019-02-10T04:54:41.977Z,44.10
2019-02-10T04:55:41.968Z,44.00
2019-02-10T04:56:41.969Z,44.31
2019-02-10T04:57:41.942Z,44.10
2019-02-10T04:58:41.934Z,44.10
2019-02-10T04:59:41.923Z,44.10
2019-02-10T05:00:41.910Z,44.10
2019-02-10T05:01:41.924Z,44.10
2019-02-10T05:02:41.889Z,44.20
2019-02-10T05:03:41.877Z,44.10
2019-02-10T05:04:41.867Z,44.20
2019-02-10T05:05:41.856Z,43.70
2019-02-10T05:06:41.852Z,44.10
2019-02-10T05:07:41.858Z,44.00
2019-02-10T05:08:41.821Z,44.10
2019-02-10T05:09:41.811Z,43.60
2019-02-10T05:10:41.804Z,44.00
2019-02-10T05:11:41.789Z,44.10
2019-02-10T05:12:41.790Z,44.00
2019-02-10T05:13:41.775Z,43.90
2019-02-10T05:14:41.755Z,44.20
2019-02-10T05:15:41.749Z,44.10
2019-02-10T05:16:41.739Z,44.00
2019-02-10T05:17:41.727Z,44.10
2019-02-10T05:18:41.715Z,44.00
2019-02-10T05:19:41.699Z,44.10
2019-02-10T05:20:41.694Z,43.90
2019-02-10T05:21:41.691Z,44.00
2019-02-10T05:22:41.668Z,44.10
2019-02-10T05:23:41.663Z,44.10
2019-02-10T05:24:41.666Z,43.90
2019-02-10T05:25:41.633Z,43.70
2019-02-10T05:26:41.666Z,43.90
2019-02-10T05:27:41.624Z,44.10
2019-02-10T05:28:41.599Z,44.10
2019-02-10T05:29:41.597Z,44.10
2019-02-10T05:30:41.575Z,43.50
2019-02-10T05:31:41.564Z,43.90
2019-02-10T05:32:41.557Z,43.90
2019-02-10T05:33:41.543Z,43.90
2019-02-10T05:34:41.537Z,44.10
2019-02-10T05:35:41.523Z,43.90
2019-02-10T05:36:41.515Z,44.12
2019-02-10T05:37:41.502Z,44.20
2019-02-10T05:38:41.485Z,43.90
2019-02-10T05:39:41.474Z,43.90
2019-02-10T05:40:41.463Z,43.80
2019-02-10T05:41:41.461Z,43.90
2019-02-10T05:42:41.444Z,43.80
2019-02-10T05:43:41.444Z,44.10
2019-02-10T05:44:41.419Z,43.70
2019-02-10T05:45:41.413Z,43.70
2019-02-10T05:46:41.401Z,43.90
2019-02-10T05:47:41.386Z,43.72
2019-02-10T05:48:41.380Z,43.90
2019-02-10T05:49:41.362Z,43.92
2019-02-10T05:50:41.360Z,43.92
2019-02-10T05:51:41.349Z,43.90
2019-02-10T05:52:41.347Z,43.72
2019-02-10T05:53:41.317Z,43.50
2019-02-10T05:54:41.308Z,43.62
2019-02-10T05:55:41.302Z,44.12
2019-02-10T05:56:41.293Z,43.90
2019-02-10T05:57:41.295Z,43.72
2019-02-10T05:58:41.263Z,43.80
2019-02-10T05:59:41.253Z,43.60
2019-02-10T06:00:41.246Z,43.72
2019-02-10T06:01:41.231Z,43.72
2019-02-10T06:02:41.221Z,43.82
2019-02-10T06:03:41.207Z,43.70
2019-02-10T06:04:41.218Z,43.72
2019-02-10T06:05:41.192Z,43.40
2019-02-10T06:06:41.176Z,44.00
2019-02-10T06:07:41.207Z,43.42
2019-02-10T06:08:41.151Z,43.40
2019-02-10T06:09:41.144Z,43.62
2019-02-10T06:10:41.132Z,42.80
2019-02-10T06:11:41.122Z,43.40
2019-02-10T06:12:41.109Z,43.40
2019-02-10T06:13:41.097Z,43.20
2019-02-10T06:14:41.103Z,42.90
2019-02-10T06:15:41.075Z,43.50
2019-02-10T06:16:41.064Z,43.40
2019-02-10T06:17:41.062Z,43.40
2019-02-10T06:18:41.042Z,43.90
2019-02-10T06:19:41.045Z,43.30
2019-02-10T06:20:41.024Z,42.80
2019-02-10T06:21:41.013Z,43.20
2019-02-10T06:22:41.007Z,42.80
2019-02-10T06:23:40.986Z,42.80
2019-02-10T06:24:40.989Z,43.10
2019-02-10T06:25:40.963Z,43.00
2019-02-10T06:26:40.958Z,42.69
2019-02-10T06:27:40.941Z,43.70
2019-02-10T06:28:41.035Z,43.78
2019-02-10T06:29:40.929Z,43.50
2019-02-10T06:30:40.908Z,42.80
2019-02-10T06:31:40.897Z,43.20
2019-02-10T06:32:40.885Z,42.78
2019-02-10T06:33:40.917Z,42.80
2019-02-10T06:34:40.872Z,42.78
2019-02-10T06:35:40.855Z,42.97
2019-02-10T06:36:40.848Z,42.78
2019-02-10T06:37:40.842Z,43.68
2019-02-10T06:38:40.832Z,43.88
2019-02-10T06:39:40.811Z,43.18
2019-02-10T06:40:40.801Z,43.68
2019-02-10T06:41:40.802Z,43.58
2019-02-10T06:42:40.780Z,43.68
2019-02-10T06:43:40.861Z,43.58
2019-02-10T06:44:40.763Z,43.18
2019-02-10T06:45:40.750Z,42.78
2019-02-10T06:46:40.731Z,43.98
2019-02-10T06:47:40.724Z,44.08
2019-02-10T06:48:40.726Z,43.48
2019-02-10T06:49:40.730Z,43.28
2019-02-10T06:50:40.694Z,43.76
2019-02-10T06:51:40.681Z,43.78
2019-02-10T06:52:40.664Z,43.48
2019-02-10T06:53:40.667Z,43.08
2019-02-10T06:54:40.652Z,43.46
2019-02-10T06:55:40.637Z,43.68
2019-02-10T06:56:40.682Z,43.38
2019-02-10T06:57:40.612Z,43.36
2019-02-10T06:58:40.614Z,43.16
2019-02-10T06:59:40.590Z,43.48
2019-02-10T07:00:40.575Z,43.08
2019-02-10T07:01:40.573Z,43.68
2019-02-10T07:02:40.553Z,43.18
2019-02-10T07:03:40.569Z,44.06
2019-02-10T07:04:40.530Z,44.16
2019-02-10T07:05:40.546Z,44.67
2019-02-10T07:06:40.516Z,44.56
2019-02-10T07:07:40.497Z,44.56
2019-02-10T07:08:40.968Z,44.87
2019-02-10T07:09:40.476Z,44.26
2019-02-10T07:10:40.463Z,44.46
2019-02-10T07:11:40.835Z,44.46
2019-02-10T07:12:40.447Z,44.46
2019-02-10T07:13:40.435Z,44.76
2019-02-10T07:14:40.421Z,44.96
2019-02-10T07:15:40.409Z,44.96
2019-02-10T07:16:40.402Z,44.36
2019-02-10T07:17:40.385Z,44.76
2019-02-10T07:18:40.384Z,44.56
2019-02-10T07:19:40.363Z,44.46
2019-02-10T07:20:40.350Z,44.67
2019-02-10T07:21:40.341Z,44.06
2019-02-10T07:22:40.366Z,44.56
2019-02-10T07:23:40.328Z,44.87
2019-02-10T07:24:40.307Z,44.56
2019-02-10T07:25:40.304Z,44.84
2019-02-10T07:26:40.291Z,45.45
2019-02-10T07:27:40.280Z,45.06
2019-02-10T07:28:40.290Z,45.17
2019-02-10T07:29:40.253Z,45.26
2019-02-10T07:30:40.239Z,45.06
2019-02-10T07:31:40.234Z,45.47
2019-02-10T07:32:40.217Z,44.76
2019-02-10T07:33:40.209Z,44.96
2019-02-10T07:34:47.749Z,44.64
2019-02-10T07:35:41.183Z,45.14
2019-02-10T07:36:40.176Z,44.74
2019-02-10T07:37:40.163Z,44.95
2019-02-10T07:38:40.162Z,45.14
2019-02-10T07:39:40.157Z,44.96
2019-02-10T07:40:40.127Z,44.04
2019-02-10T07:41:40.117Z,44.34
2019-02-10T07:42:40.109Z,44.24
2019-02-10T07:43:40.123Z,44.34
2019-02-10T07:44:40.127Z,45.04
2019-02-10T07:45:40.078Z,44.76
2019-02-10T07:46:40.061Z,44.84
2019-02-10T07:47:40.051Z,44.34
2019-02-10T07:48:40.040Z,44.44
2019-02-10T07:49:40.045Z,44.95
2019-02-10T07:50:40.021Z,44.95
2019-02-10T07:51:40.008Z,44.95
2019-02-10T07:52:39.998Z,45.25
2019-02-10T07:53:39.999Z,44.74
2019-02-10T07:54:42.351Z,44.84
2019-02-10T07:55:39.967Z,44.95
2019-02-10T07:56:39.966Z,44.54
2019-02-10T07:57:39.939Z,44.64
2019-02-10T07:58:39.986Z,44.64
2019-02-10T07:59:39.933Z,44.64
2019-02-10T08:00:39.905Z,45.04
2019-02-10T08:01:39.897Z,44.44
2019-02-10T08:02:39.889Z,44.44
2019-02-10T08:03:39.879Z,45.45
2019-02-10T08:04:39.881Z,45.34
2019-02-10T08:05:39.850Z,45.04
2019-02-10T08:06:39.841Z,45.25
2019-02-10T08:07:39.828Z,45.42
2019-02-10T08:08:46.427Z,45.02
2019-02-10T08:09:40.845Z,45.02
2019-02-10T08:10:39.802Z,45.22
2019-02-10T08:11:39.784Z,45.02
2019-02-10T08:12:39.827Z,45.02
2019-02-10T08:13:39.763Z,45.02
2019-02-10T08:14:39.750Z,45.12
2019-02-10T08:15:39.756Z,45.12
2019-02-10T08:16:39.742Z,45.02
2019-02-10T08:17:39.720Z,45.22
2019-02-10T08:18:39.707Z,44.92
2019-02-10T08:19:39.703Z,45.53
2019-02-10T08:20:40.544Z,45.32
2019-02-10T08:21:39.679Z,45.42
2019-02-10T08:22:39.664Z,45.12
2019-02-10T08:23:39.652Z,45.32
2019-02-10T08:24:39.643Z,45.42
2019-02-10T08:25:39.660Z,45.22
2019-02-10T08:26:39.621Z,45.32
2019-02-10T08:27:39.610Z,45.12
2019-02-10T08:28:39.599Z,45.42
2019-02-10T08:29:39.593Z,45.10
2019-02-10T08:30:39.587Z,45.42
2019-02-10T08:31:39.566Z,45.42
2019-02-10T08:32:39.556Z,44.82
2019-02-10T08:33:39.544Z,45.02
2019-02-10T08:34:39.533Z,45.22
2019-02-10T08:35:39.532Z,45.50
2019-02-10T08:36:39.566Z,45.92
2019-02-10T08:37:39.502Z,45.70
2019-02-10T08:38:39.491Z,46.50
2019-02-10T08:39:39.483Z,46.50
2019-02-10T08:40:39.591Z,45.60
2019-02-10T08:41:39.458Z,46.41
2019-02-10T08:42:39.448Z,46.20
2019-02-10T08:43:39.445Z,46.11
2019-02-10T08:44:39.427Z,46.30
2019-02-10T08:45:39.438Z,45.90
2019-02-10T08:46:39.405Z,46.00
2019-02-10T08:47:39.395Z,46.41
2019-02-10T08:48:39.392Z,45.80
2019-02-10T08:49:39.374Z,46.48
2019-02-10T08:50:39.381Z,45.98
2019-02-10T08:51:39.351Z,45.98
2019-02-10T08:52:39.340Z,46.18
2019-02-10T08:53:39.329Z,46.28
2019-02-10T08:54:39.321Z,46.38
2019-02-10T08:55:39.317Z,46.48
2019-02-10T08:56:39.297Z,46.18
2019-02-10T08:57:39.292Z,45.78
2019-02-10T08:58:39.275Z,46.41
2019-02-10T08:59:39.267Z,46.18
2019-02-10T09:00:39.264Z,46.18
2019-02-10T09:01:39.243Z,46.20
2019-02-10T09:02:39.238Z,46.61
2019-02-10T09:03:39.231Z,46.30
2019-02-10T09:04:39.218Z,46.28
2019-02-10T09:05:39.243Z,46.20
2019-02-10T09:06:39.192Z,46.18
2019-02-10T09:07:39.181Z,46.20
2019-02-10T09:08:39.174Z,45.90
2019-02-10T09:09:39.155Z,45.00
2019-02-10T09:10:39.150Z,45.08
2019-02-10T09:11:39.153Z,45.00
2019-02-10T09:12:39.128Z,44.90
2019-02-10T09:13:39.138Z,45.60
2019-02-10T09:14:39.101Z,45.80
2019-02-10T09:15:39.287Z,45.48
2019-02-10T09:16:39.092Z,45.30
2019-02-10T09:17:39.070Z,46.38
2019-02-10T09:18:39.058Z,44.60
2019-02-10T09:19:39.062Z,39.69
2019-02-10T09:20:39.040Z,30.77
2019-02-10T09:21:39.046Z,31.79
2019-02-10T09:22:39.020Z,33.32
2019-02-10T09:23:39.010Z,33.04
2019-02-10T09:24:39.347Z,32.95
2019-02-10T09:25:38.989Z,33.45
2019-02-10T09:26:38.994Z,33.67
2019-02-10T09:27:38.968Z,30.36
2019-02-10T09:28:38.953Z,30.48
2019-02-10T09:29:38.938Z,30.31
2019-02-10T09:30:38.930Z,31.35
2019-02-10T09:31:38.928Z,32.49
2019-02-10T09:32:38.908Z,32.92
2019-02-10T09:33:38.895Z,33.05
2019-02-10T09:34:38.887Z,33.49
2019-02-10T09:35:38.908Z,35.13
2019-02-10T09:36:38.871Z,34.75
2019-02-10T09:37:38.851Z,36.08
2019-02-10T09:38:38.843Z,36.80
2019-02-10T09:39:38.832Z,37.71
2019-02-10T09:40:38.817Z,37.71
2019-02-10T09:41:38.897Z,39.21
2019-02-10T09:42:38.805Z,38.81
2019-02-10T09:43:38.874Z,38.77
2019-02-10T09:44:38.783Z,38.57
2019-02-10T09:45:38.777Z,37.74
2019-02-10T09:46:38.750Z,37.52
2019-02-10T09:47:38.740Z,37.12
2019-02-10T09:48:38.727Z,38.01
2019-02-10T09:49:38.716Z,37.99
2019-02-10T09:50:38.703Z,37.77
2019-02-10T09:51:38.694Z,38.98
2019-02-10T09:52:38.707Z,39.06
2019-02-10T09:53:38.671Z,38.84
2019-02-10T09:54:38.662Z,38.64
2019-02-10T09:55:38.706Z,38.54
2019-02-10T09:56:38.644Z,39.03
2019-02-10T09:57:38.636Z,39.03
2019-02-10T09:58:38.617Z,39.11
2019-02-10T09:59:38.604Z,38.40
2019-02-10T10:00:38.592Z,38.48
2019-02-10T10:01:38.582Z,37.98
2019-02-10T10:02:38.582Z,38.57
2019-02-10T10:03:38.562Z,38.27
2019-02-10T10:04:38.556Z,38.27
2019-02-10T10:05:38.541Z,38.25
2019-02-10T10:06:38.526Z,38.95
2019-02-10T10:07:38.524Z,37.74
2019-02-10T10:08:38.504Z,38.55
2019-02-10T10:09:38.497Z,39.15
2019-02-10T10:10:38.493Z,38.73
2019-02-10T10:11:38.475Z,38.33
2019-02-10T10:12:38.470Z,39.72
2019-02-10T10:13:38.452Z,39.82
2019-02-10T10:14:38.485Z,39.52
2019-02-10T10:15:38.428Z,39.42
2019-02-10T10:16:38.419Z,39.40
2019-02-10T10:17:38.419Z,39.42
2019-02-10T10:18:38.399Z,39.30
2019-02-10T10:19:38.384Z,39.30
2019-02-10T10:20:38.382Z,40.11
2019-02-10T10:21:38.376Z,39.50
2019-02-10T10:22:38.370Z,40.39
2019-02-10T10:23:38.343Z,40.08
2019-02-10T10:24:38.328Z,39.58
2019-02-10T10:25:38.319Z,39.98
2019-02-10T10:26:38.311Z,39.48
2019-02-10T10:27:38.302Z,39.58
2019-02-10T10:28:38.302Z,40.08
2019-02-10T10:29:38.272Z,39.58
2019-02-10T10:30:38.267Z,39.69
2019-02-10T10:31:38.256Z,40.19
2019-02-10T10:32:38.248Z,40.47
2019-02-10T10:33:38.233Z,40.67
2019-02-10T10:34:38.216Z,40.37
2019-02-10T10:35:38.221Z,40.47
2019-02-10T10:36:38.199Z,40.77
2019-02-10T10:37:38.190Z,40.97
2019-02-10T10:38:38.171Z,40.95
2019-02-10T10:39:38.160Z,40.57
2019-02-10T10:40:38.151Z,40.75
2019-02-10T10:41:38.147Z,41.05
2019-02-10T10:42:38.138Z,41.25
2019-02-10T10:43:38.118Z,40.75
2019-02-10T10:44:38.115Z,40.75
2019-02-10T10:45:38.096Z,40.75
2019-02-10T10:46:38.081Z,40.85
2019-02-10T10:47:38.092Z,41.05
2019-02-10T10:48:38.059Z,40.85
2019-02-10T10:49:38.054Z,41.05
2019-02-10T10:50:38.037Z,40.95
2019-02-10T10:51:39.314Z,40.85
2019-02-10T10:52:38.021Z,40.85
2019-02-10T10:53:38.013Z,40.73
2019-02-10T10:54:42.805Z,41.03
2019-02-10T10:55:38.981Z,41.03
2019-02-10T10:56:37.969Z,41.23
2019-02-10T10:57:37.958Z,41.03
2019-02-10T10:58:37.950Z,41.13
2019-02-10T10:59:37.936Z,40.43
2019-02-10T11:00:37.924Z,41.03
2019-02-10T11:01:37.915Z,40.73
2019-02-10T11:02:37.909Z,41.43
2019-02-10T11:03:37.894Z,41.33
2019-02-10T11:04:37.886Z,41.53
2019-02-10T11:05:37.873Z,41.03
2019-02-10T11:06:37.858Z,41.13
2019-02-10T11:07:37.852Z,41.13
2019-02-10T11:08:37.843Z,41.11
2019-02-10T11:09:37.824Z,41.71
2019-02-10T11:10:37.816Z,41.51
2019-02-10T11:11:37.818Z,41.31
2019-02-10T11:12:37.791Z,41.31
2019-02-10T11:13:37.784Z,41.51
2019-02-10T11:14:37.768Z,41.31
2019-02-10T11:15:37.765Z,41.21
2019-02-10T11:16:37.748Z,41.51
2019-02-10T11:17:37.738Z,41.79
2019-02-10T11:18:37.737Z,41.60
2019-02-10T11:19:37.717Z,41.60
2019-02-10T11:20:37.713Z,41.60
2019-02-10T11:21:37.692Z,41.49
2019-02-10T11:22:37.705Z,41.29
2019-02-10T11:23:37.683Z,41.60
2019-02-10T11:24:37.669Z,41.39
2019-02-10T11:25:37.655Z,41.69
2019-02-10T11:26:37.644Z,41.19
2019-02-10T11:27:37.633Z,41.29
2019-02-10T11:28:37.656Z,41.17
2019-02-10T11:29:37.613Z,42.18
2019-02-10T11:30:37.594Z,42.38
2019-02-10T11:31:37.588Z,42.18
2019-02-10T11:32:37.581Z,42.18
2019-02-10T11:33:37.585Z,42.47
2019-02-10T11:34:37.591Z,42.57
2019-02-10T11:35:37.541Z,41.38
2019-02-10T11:36:37.533Z,41.77
2019-02-10T11:37:37.519Z,40.87
2019-02-10T11:38:37.523Z,39.37
2019-02-10T11:39:43.649Z,38.97
2019-02-10T11:40:38.492Z,38.67
2019-02-10T11:41:37.481Z,39.27
2019-02-10T11:42:37.471Z,39.77
2019-02-10T11:43:37.506Z,39.77
2019-02-10T11:44:37.450Z,39.37
2019-02-10T11:45:37.433Z,39.45
2019-02-10T11:46:37.425Z,40.47
2019-02-10T11:47:37.414Z,40.75
2019-02-10T11:48:37.429Z,40.27
2019-02-10T11:49:37.410Z,39.95
2019-02-10T11:50:37.379Z,39.95
2019-02-10T11:51:37.375Z,40.35
2019-02-10T11:52:37.358Z,39.35
2019-02-10T11:53:37.355Z,40.05
2019-02-10T11:54:37.348Z,39.65
2019-02-10T11:55:37.334Z,40.15
2019-02-10T11:56:37.320Z,35.76
2019-02-10T11:57:37.308Z,34.05
2019-02-10T11:58:37.299Z,34.46
2019-02-10T11:59:37.297Z,35.06
2019-02-10T12:00:37.306Z,36.26
2019-02-10T12:01:37.270Z,37.07
2019-02-10T12:02:38.242Z,35.86
2019-02-10T12:03:37.246Z,36.36
2019-02-10T12:04:37.237Z,36.07
2019-02-10T12:05:37.219Z,36.66
2019-02-10T12:06:37.207Z,36.36
2019-02-10T12:07:37.199Z,36.66
2019-02-10T12:08:37.199Z,36.07
2019-02-10T12:09:37.186Z,34.36
2019-02-10T12:10:37.166Z,34.56
2019-02-10T12:11:37.161Z,34.96
2019-02-10T12:12:37.147Z,35.46
2019-02-10T12:13:39.154Z,36.07
2019-02-10T12:14:37.136Z,36.46
2019-02-10T12:15:37.113Z,36.46
2019-02-10T12:16:37.102Z,36.96
2019-02-10T12:17:37.095Z,36.57
2019-02-10T12:18:37.092Z,36.66
2019-02-10T12:19:37.087Z,36.57
2019-02-10T12:20:37.060Z,36.57
2019-02-10T12:21:37.049Z,36.16
2019-02-10T12:22:37.046Z,36.36
2019-02-10T12:23:37.025Z,37.16
2019-02-10T12:24:37.024Z,36.46
2019-02-10T12:25:37.005Z,35.76
2019-02-10T12:26:36.998Z,37.07
2019-02-10T12:27:36.988Z,35.76
2019-02-10T12:28:36.978Z,36.76
2019-02-10T12:29:36.973Z,36.87
2019-02-10T12:30:36.957Z,37.37
2019-02-10T12:31:36.940Z,37.16
2019-02-10T12:32:36.936Z,36.96
2019-02-10T12:33:36.919Z,37.37
2019-02-10T12:34:36.953Z,37.37
2019-02-10T12:35:36.897Z,37.07
2019-02-10T12:36:36.886Z,37.45
2019-02-10T12:37:36.883Z,37.27
2019-02-10T12:38:36.872Z,37.75
2019-02-10T12:39:36.882Z,38.45
2019-02-10T12:40:36.847Z,38.25
2019-02-10T12:41:36.834Z,38.25
2019-02-10T12:42:36.823Z,38.15
2019-02-10T12:43:36.810Z,38.13
2019-02-10T12:44:36.840Z,38.03
2019-02-10T12:45:36.792Z,38.05
2019-02-10T12:46:36.780Z,38.13
2019-02-10T12:47:36.769Z,38.53
2019-02-10T12:48:36.758Z,38.43
2019-02-10T12:49:36.747Z,38.23
2019-02-10T12:50:36.747Z,38.15
2019-02-10T12:51:36.740Z,38.33
2019-02-10T12:52:36.714Z,38.33